createdAt,value
2017-10-03T00:02:33.573Z,92.10
2017-10-03T00:05:04.779Z,92.30
2017-10-03T00:07:34.407Z,92.30
2017-10-03T00:10:05.386Z,92.70
2017-10-03T00:12:35.262Z,92.40
2017-10-03T00:15:10.120Z,92.80
2017-10-03T00:17:41.515Z,92.80
2017-10-03T00:20:11.470Z,92.80
2017-10-03T00:22:41.358Z,92.60
2017-10-03T00:25:11.012Z,92.60
2017-10-03T00:27:42.050Z,93.20
2017-10-03T00:30:13.633Z,93.50
2017-10-03T00:32:48.640Z,93.50
2017-10-03T00:35:18.793Z,93.50
2017-10-03T00:37:48.321Z,93.50
2017-10-03T00:40:18.785Z,93.60
2017-10-03T00:42:48.377Z,93.20
2017-10-03T00:45:18.729Z,93.50
2017-10-03T00:47:49.393Z,93.70
2017-10-03T00:50:19.325Z,93.80
2017-10-03T00:52:49.372Z,93.50
2017-10-03T00:55:21.120Z,93.30
2017-10-03T00:57:50.580Z,93.30
2017-10-03T01:00:20.783Z,93.40
2017-10-03T01:02:50.674Z,93.70
2017-10-03T01:05:26.991Z,93.90
2017-10-03T01:07:59.024Z,94.10
2017-10-03T01:10:28.656Z,94.10
2017-10-03T01:12:58.149Z,93.50
2017-10-03T01:15:30.901Z,93.80
2017-10-03T01:18:03.450Z,93.40
2017-10-03T01:20:34.860Z,94.20
2017-10-03T01:23:06.124Z,94.00
2017-10-03T01:25:42.132Z,93.60
2017-10-03T01:28:13.566Z,93.40
2017-10-03T01:30:46.608Z,93.70
2017-10-03T01:33:19.157Z,93.50
2017-10-03T01:35:49.270Z,93.70
2017-10-03T01:38:21.356Z,93.90
2017-10-03T01:40:50.957Z,93.90
2017-10-03T01:43:20.379Z,93.40
2017-10-03T01:45:50.520Z,93.50
2017-10-03T01:48:35.287Z,93.30
2017-10-03T01:51:05.826Z,94.00
2017-10-03T01:53:35.739Z,94.20
2017-10-03T01:56:06.775Z,94.20
2017-10-03T01:58:36.279Z,94.30
2017-10-03T02:01:07.712Z,93.80
2017-10-03T02:03:37.960Z,93.90
2017-10-03T02:06:08.645Z,94.00
2017-10-03T02:08:40.526Z,93.50
2017-10-03T02:11:10.728Z,93.80
2017-10-03T02:13:40.766Z,93.90
2017-10-03T02:16:11.843Z,93.90
2017-10-03T02:18:42.177Z,94.00
2017-10-03T02:21:13.431Z,94.00
2017-10-03T02:23:44.118Z,93.50
2017-10-03T02:26:18.375Z,93.60
2017-10-03T02:28:50.032Z,93.80
2017-10-03T02:31:22.662Z,93.70
2017-10-03T02:33:52.888Z,93.70
2017-10-03T02:36:22.211Z,93.40
2017-10-03T02:38:53.613Z,93.80
2017-10-03T02:41:25.542Z,93.40
2017-10-03T02:43:54.721Z,93.40
2017-10-03T02:46:23.897Z,93.10
2017-10-03T02:48:53.272Z,93.50
2017-10-03T02:51:22.595Z,93.50
2017-10-03T02:53:52.097Z,93.50
2017-10-03T02:56:21.814Z,93.70
2017-10-03T02:58:51.758Z,93.50
2017-10-03T03:01:21.036Z,93.70
2017-10-03T03:03:50.637Z,94.00
2017-10-03T03:06:20.448Z,93.90
2017-10-03T03:08:51.773Z,93.50
2017-10-03T03:11:21.045Z,93.50
2017-10-03T03:13:50.280Z,93.90
2017-10-03T03:16:20.528Z,94.10
2017-10-03T03:18:49.914Z,94.10
2017-10-03T03:21:19.674Z,94.20
2017-10-03T03:23:49.748Z,94.40
2017-10-03T03:26:19.017Z,94.50
2017-10-03T03:28:52.735Z,93.90
2017-10-03T03:31:21.826Z,93.90
2017-10-03T03:33:54.558Z,93.90
2017-10-03T03:36:27.711Z,93.90
2017-10-03T03:38:58.840Z,94.20
2017-10-03T03:41:28.694Z,93.90
2017-10-03T03:43:58.856Z,94.10
2017-10-03T03:46:27.910Z,93.90
2017-10-03T03:48:57.669Z,94.20
2017-10-03T03:51:26.675Z,94.10
2017-10-03T03:53:56.560Z,94.10
2017-10-03T03:56:26.577Z,93.90
2017-10-03T03:58:56.397Z,94.00
2017-10-03T04:01:25.713Z,93.90
2017-10-03T04:03:56.177Z,94.20
2017-10-03T04:06:25.421Z,94.10
2017-10-03T04:08:54.492Z,94.10
2017-10-03T04:11:24.254Z,94.30
2017-10-03T04:13:53.372Z,94.40
2017-10-03T04:16:22.660Z,94.10
2017-10-03T04:19:10.864Z,94.20
2017-10-03T04:21:40.701Z,94.20
2017-10-03T04:24:10.739Z,94.90
2017-10-03T04:26:40.153Z,94.50
2017-10-03T04:29:10.337Z,94.20
2017-10-03T04:31:39.614Z,94.30
2017-10-03T04:34:08.812Z,94.00
2017-10-03T04:36:38.803Z,94.00
2017-10-03T04:39:08.042Z,94.00
2017-10-03T04:41:39.411Z,94.10
2017-10-03T04:44:09.203Z,94.30
2017-10-03T04:46:38.182Z,94.30
2017-10-03T04:49:08.348Z,94.40
2017-10-03T04:51:38.452Z,94.20
2017-10-03T04:54:08.572Z,94.20
2017-10-03T04:56:37.904Z,94.20
2017-10-03T04:59:07.590Z,94.20
2017-10-03T05:01:37.637Z,94.20
2017-10-03T05:04:06.928Z,94.20
2017-10-03T05:06:36.232Z,94.20
2017-10-03T05:09:05.673Z,94.10
2017-10-03T05:11:35.144Z,94.20
2017-10-03T05:14:04.245Z,94.10
2017-10-03T05:16:33.638Z,94.10
2017-10-03T05:19:02.890Z,94.10
2017-10-03T05:21:32.112Z,94.10
2017-10-03T05:24:02.181Z,94.30
2017-10-03T05:26:31.621Z,94.30
2017-10-03T05:29:01.536Z,94.20
2017-10-03T05:31:32.095Z,94.40
2017-10-03T05:34:01.147Z,94.40
2017-10-03T05:36:30.433Z,94.30
2017-10-03T05:38:59.443Z,94.30
2017-10-03T05:41:28.743Z,94.30
2017-10-03T05:43:59.430Z,94.40
2017-10-03T05:46:29.621Z,94.40
2017-10-03T05:48:58.849Z,94.20
2017-10-03T05:51:28.097Z,94.40
2017-10-03T05:53:57.360Z,94.40
2017-10-03T05:56:26.591Z,94.50
2017-10-03T05:58:55.802Z,94.50
2017-10-03T06:01:26.179Z,94.50
2017-10-03T06:03:55.231Z,94.50
2017-10-03T06:06:25.093Z,94.20
2017-10-03T06:08:54.177Z,94.20
2017-10-03T06:11:23.991Z,94.40
2017-10-03T06:13:53.536Z,94.40
2017-10-03T06:16:22.847Z,94.60
2017-10-03T06:18:52.850Z,94.00
2017-10-03T06:21:22.057Z,94.00
2017-10-03T06:23:51.278Z,94.30
2017-10-03T06:26:52.092Z,93.60
2017-10-03T06:29:21.208Z,93.60
2017-10-03T06:31:50.676Z,93.30
2017-10-03T06:34:19.958Z,93.50
2017-10-03T06:36:49.224Z,93.50
2017-10-03T06:39:19.176Z,93.50
2017-10-03T06:41:48.405Z,93.50
2017-10-03T06:44:19.976Z,93.10
2017-10-03T06:46:49.305Z,92.90
2017-10-03T06:49:18.570Z,93.10
2017-10-03T06:51:48.738Z,92.60
2017-10-03T06:54:18.009Z,92.60
2017-10-03T06:56:47.844Z,92.60
2017-10-03T06:59:16.945Z,92.60
2017-10-03T07:01:46.422Z,92.60
2017-10-03T07:04:15.912Z,92.40
2017-10-03T07:06:45.106Z,92.50
2017-10-03T07:09:15.092Z,92.10
2017-10-03T07:11:44.165Z,92.20
2017-10-03T07:14:13.593Z,92.10
2017-10-03T07:16:43.517Z,92.20
2017-10-03T07:19:12.655Z,92.10
2017-10-03T07:21:42.672Z,91.70
2017-10-03T07:24:12.078Z,91.70
2017-10-03T07:26:41.307Z,91.10
2017-10-03T07:29:12.063Z,91.30
2017-10-03T07:31:41.872Z,91.40
2017-10-03T07:34:11.126Z,91.30
2017-10-03T07:36:40.334Z,91.30
2017-10-03T07:39:09.476Z,91.40
2017-10-03T07:41:39.362Z,91.00
2017-10-03T07:44:09.714Z,90.80
2017-10-03T07:46:38.958Z,90.80
2017-10-03T07:49:08.286Z,90.60
2017-10-03T07:51:37.653Z,90.70
2017-10-03T07:54:07.021Z,90.70
2017-10-03T07:56:37.390Z,91.00
2017-10-03T07:59:06.618Z,90.80
2017-10-03T08:01:35.763Z,90.50
2017-10-03T08:04:05.367Z,91.00
2017-10-03T08:06:35.233Z,90.20
2017-10-03T08:09:04.629Z,90.30
2017-10-03T08:11:33.853Z,89.90
2017-10-03T08:14:02.963Z,89.50
2017-10-03T08:16:32.983Z,90.00
2017-10-03T08:19:02.285Z,89.00
2017-10-03T08:21:31.609Z,88.80
2017-10-03T08:24:00.998Z,87.80
2017-10-03T08:26:31.487Z,87.10
2017-10-03T08:29:01.069Z,87.00
2017-10-03T08:31:30.359Z,87.60
2017-10-03T08:33:59.755Z,87.20
2017-10-03T08:36:29.517Z,86.20
2017-10-03T08:39:00.247Z,87.40
2017-10-03T08:41:29.625Z,87.40
2017-10-03T08:43:58.647Z,86.50
2017-10-03T08:46:28.489Z,84.20
2017-10-03T08:48:58.307Z,84.20
2017-10-03T08:51:28.203Z,84.50
2017-10-03T08:53:57.669Z,84.60
2017-10-03T08:56:27.130Z,84.30
2017-10-03T08:58:57.049Z,84.20
2017-10-03T09:01:26.770Z,84.30
2017-10-03T09:03:56.222Z,85.40
2017-10-03T09:06:27.265Z,84.40
2017-10-03T09:08:57.425Z,85.10
2017-10-03T09:11:27.535Z,84.80
2017-10-03T09:13:56.995Z,84.70
2017-10-03T09:16:27.318Z,83.40
2017-10-03T09:18:58.396Z,83.60
2017-10-03T09:21:29.643Z,83.50
2017-10-03T09:24:00.098Z,80.20
2017-10-03T09:26:29.368Z,79.30
2017-10-03T09:29:00.643Z,76.40
2017-10-03T09:31:31.488Z,72.20
2017-10-03T09:34:01.372Z,72.30
2017-10-03T09:36:31.860Z,75.70
2017-10-03T09:39:02.427Z,75.70
2017-10-03T09:41:33.097Z,75.40
2017-10-03T09:44:03.738Z,75.20
2017-10-03T09:46:33.482Z,75.30
2017-10-03T09:49:06.201Z,73.70
2017-10-03T09:51:36.661Z,73.40
2017-10-03T09:54:06.496Z,73.40
2017-10-03T09:56:37.419Z,75.60
2017-10-03T09:59:06.582Z,75.60
2017-10-03T10:01:37.183Z,78.60
2017-10-03T10:04:08.566Z,78.10
2017-10-03T10:06:38.297Z,78.10
2017-10-03T10:09:08.991Z,77.80
2017-10-03T10:11:38.994Z,74.90
2017-10-03T10:14:08.819Z,74.90
2017-10-03T10:16:38.664Z,74.40
2017-10-03T10:19:09.106Z,68.80
2017-10-03T10:21:39.301Z,73.30
2017-10-03T10:24:09.237Z,67.90
2017-10-03T10:26:39.032Z,63.30
2017-10-03T10:29:10.661Z,58.00
2017-10-03T10:31:43.214Z,57.90
2017-10-03T10:34:13.650Z,56.40
2017-10-03T10:36:51.544Z,57.60
2017-10-03T10:39:21.199Z,57.40
2017-10-03T10:41:51.681Z,59.70
2017-10-03T10:44:22.608Z,61.60
2017-10-03T10:46:53.050Z,55.10
2017-10-03T10:49:24.355Z,55.10
2017-10-03T10:51:54.228Z,57.80
2017-10-03T10:54:23.728Z,62.10
2017-10-03T10:56:53.621Z,65.50
2017-10-03T10:59:24.871Z,59.20
2017-10-03T11:01:55.094Z,54.40
2017-10-03T11:04:25.665Z,51.00
2017-10-03T11:07:01.311Z,50.20
2017-10-03T11:15:50.931Z,56.50
2017-10-03T11:18:27.205Z,59.10
2017-10-03T11:20:57.074Z,61.20
2017-10-03T11:25:37.581Z,62.80
2017-10-03T11:28:11.046Z,58.80
2017-10-03T11:30:41.054Z,58.70
2017-10-03T11:33:16.445Z,57.30
2017-10-03T11:35:47.747Z,57.90
2017-10-03T11:38:18.633Z,59.80
2017-10-03T11:41:21.080Z,60.30
2017-10-03T11:43:54.755Z,58.90
2017-10-03T11:53:15.223Z,55.80
2017-10-03T11:55:46.294Z,49.60
2017-10-03T11:58:17.927Z,46.50
2017-10-03T12:00:47.913Z,45.30
2017-10-03T12:03:22.927Z,49.70
2017-10-03T12:05:55.078Z,49.20
2017-10-03T12:08:26.850Z,49.20
2017-10-03T12:11:05.636Z,51.10
2017-10-03T12:13:40.264Z,49.40
2017-10-03T12:16:12.509Z,49.40
2017-10-03T12:18:43.165Z,44.10
2017-10-03T12:21:15.105Z,42.60
2017-10-03T12:23:49.129Z,43.60
2017-10-03T12:26:19.197Z,43.60
2017-10-03T12:28:50.994Z,42.50
2017-10-03T12:31:23.190Z,42.10
2017-10-03T12:33:53.991Z,40.90
2017-10-03T12:36:24.397Z,42.80
2017-10-03T12:38:55.749Z,42.20
2017-10-03T12:41:26.778Z,41.40
2017-10-03T12:43:57.351Z,41.40
2017-10-03T12:46:27.879Z,41.60
2017-10-03T12:48:58.934Z,42.20
2017-10-03T12:51:29.382Z,43.00
2017-10-03T12:54:01.589Z,42.30
2017-10-03T12:56:35.850Z,41.30
2017-10-03T12:59:07.588Z,44.60
2017-10-03T13:01:37.909Z,47.00
2017-10-03T13:04:09.186Z,47.90
2017-10-03T13:06:38.570Z,46.30
2017-10-03T13:09:09.061Z,52.00
2017-10-03T13:11:39.102Z,52.00
2017-10-03T13:14:09.434Z,54.60
2017-10-03T13:16:39.555Z,55.80
2017-10-03T13:19:09.848Z,57.60
2017-10-03T13:21:40.278Z,54.60
2017-10-03T13:24:12.806Z,54.50
2017-10-03T13:26:43.356Z,42.90
2017-10-03T13:29:13.587Z,42.90
2017-10-03T13:31:43.245Z,41.70
2017-10-03T13:34:12.759Z,42.30
2017-10-03T13:36:46.212Z,40.80
2017-10-03T13:39:17.230Z,40.30
2017-10-03T13:41:50.736Z,42.20
2017-10-03T13:44:20.074Z,46.40
2017-10-03T13:46:51.741Z,50.10
2017-10-03T13:49:23.402Z,54.80
2017-10-03T13:51:57.100Z,54.80
2017-10-03T13:54:27.255Z,52.80
2017-10-03T13:56:56.769Z,52.80
2017-10-03T13:59:26.949Z,54.30
2017-10-03T14:02:01.852Z,57.70
2017-10-03T14:04:35.858Z,57.10
2017-10-03T14:07:10.557Z,57.70
2017-10-03T14:09:42.865Z,57.80
2017-10-03T14:12:13.373Z,58.60
2017-10-03T14:14:43.104Z,58.70
2017-10-03T14:17:13.668Z,58.80
2017-10-03T14:19:44.123Z,59.50
2017-10-03T14:22:14.234Z,59.00
2017-10-03T14:24:43.714Z,59.50
2017-10-03T14:27:13.255Z,59.70
2017-10-03T14:29:43.194Z,58.50
2017-10-03T14:32:12.495Z,58.60
2017-10-03T14:34:42.251Z,59.30
2017-10-03T14:37:11.896Z,58.50
2017-10-03T14:39:41.395Z,57.70
2017-10-03T14:42:11.062Z,57.20
2017-10-03T14:44:54.515Z,57.70
2017-10-03T14:47:24.511Z,57.10
2017-10-03T14:49:54.314Z,57.00
2017-10-03T14:52:24.268Z,57.70
2017-10-03T14:54:54.659Z,57.30
2017-10-03T14:57:24.070Z,56.90
2017-10-03T14:59:56.678Z,56.60
2017-10-03T15:02:26.859Z,57.40
2017-10-03T15:04:56.133Z,56.90
2017-10-03T15:07:26.798Z,57.30
2017-10-03T15:09:56.566Z,57.50
2017-10-03T15:12:31.549Z,58.10
2017-10-03T15:15:00.971Z,58.00
2017-10-03T15:17:30.549Z,59.40
2017-10-03T15:20:00.178Z,59.60
2017-10-03T15:22:30.124Z,59.60
2017-10-03T15:24:59.805Z,59.80
2017-10-03T15:27:29.216Z,60.30
2017-10-03T15:29:59.964Z,60.00
2017-10-03T15:32:29.827Z,60.00
2017-10-03T15:34:59.933Z,61.00
2017-10-03T15:37:29.053Z,61.00
2017-10-03T15:39:58.403Z,60.80
2017-10-03T15:42:29.060Z,60.20
2017-10-03T15:44:59.665Z,60.50
2017-10-03T15:47:29.054Z,60.50
2017-10-03T15:49:58.302Z,60.80
2017-10-03T15:52:27.865Z,61.10
2017-10-03T15:54:58.944Z,61.10
2017-10-03T15:57:28.720Z,61.50
2017-10-03T15:59:58.872Z,61.80
2017-10-03T16:02:28.490Z,61.80
2017-10-03T16:04:57.876Z,62.00
2017-10-03T16:07:28.365Z,62.40
2017-10-03T16:09:58.711Z,62.00
2017-10-03T16:12:28.473Z,62.00
2017-10-03T16:14:57.902Z,62.40
2017-10-03T16:17:29.399Z,62.10
2017-10-03T16:20:01.037Z,62.10
2017-10-03T16:22:30.797Z,62.50
2017-10-03T16:25:00.916Z,62.50
2017-10-03T16:27:31.788Z,62.60
2017-10-03T16:30:01.791Z,62.80
2017-10-03T16:32:31.995Z,63.70
2017-10-03T16:35:02.353Z,63.40
2017-10-03T16:37:33.536Z,63.80
2017-10-03T16:40:03.415Z,64.30
2017-10-03T16:42:33.946Z,65.00
2017-10-03T16:45:06.130Z,65.60
2017-10-03T16:47:35.676Z,65.80
2017-10-03T16:50:05.933Z,66.50
2017-10-03T16:52:38.594Z,67.10
2017-10-03T16:55:15.798Z,67.10
2017-10-03T16:57:46.260Z,67.40
2017-10-03T17:00:16.333Z,67.60
2017-10-03T17:02:47.318Z,67.60
2017-10-03T17:05:17.928Z,67.90
2017-10-03T17:07:56.996Z,68.10
2017-10-03T17:10:28.283Z,68.10
2017-10-03T17:12:58.650Z,68.00
2017-10-03T17:15:33.763Z,67.60
2017-10-03T17:18:07.573Z,68.50
2017-10-03T17:20:38.419Z,68.50
2017-10-03T17:23:09.915Z,67.40
2017-10-03T17:25:44.177Z,66.70
2017-10-03T17:28:13.607Z,66.10
2017-10-03T17:30:44.582Z,65.80
2017-10-03T17:33:15.609Z,66.20
2017-10-03T17:36:02.047Z,65.50
2017-10-03T17:38:33.139Z,65.50
2017-10-03T17:41:09.292Z,65.40
2017-10-03T17:43:41.275Z,65.60
2017-10-03T17:46:11.410Z,65.30
2017-10-03T17:48:55.099Z,65.80
2017-10-03T17:51:25.653Z,65.80
2017-10-03T17:53:55.856Z,66.30
2017-10-03T17:56:27.411Z,66.30
2017-10-03T17:58:59.751Z,66.80
2017-10-03T18:01:30.912Z,67.10
2017-10-03T18:04:03.214Z,67.50
2017-10-03T18:06:33.166Z,67.70
2017-10-03T18:09:10.014Z,67.90
2017-10-03T18:11:45.170Z,68.00
2017-10-03T18:14:31.158Z,68.10
2017-10-03T18:17:04.708Z,68.20
2017-10-03T18:19:35.203Z,68.50
2017-10-03T18:22:04.566Z,68.50
2017-10-03T18:24:35.468Z,68.70
2017-10-03T18:27:06.357Z,68.50
2017-10-03T18:29:36.011Z,68.80
2017-10-03T18:32:05.600Z,68.70
2017-10-03T18:34:37.574Z,68.40
2017-10-03T18:37:08.085Z,68.40
2017-10-03T18:39:37.288Z,68.80
2017-10-03T18:42:06.521Z,68.80
2017-10-03T18:44:39.566Z,69.30
2017-10-03T18:47:12.083Z,70.00
2017-10-03T18:49:44.773Z,69.80
2017-10-03T18:52:18.988Z,69.80
2017-10-03T18:54:48.154Z,69.90
2017-10-03T18:57:18.292Z,70.10
2017-10-03T18:59:48.397Z,69.90
2017-10-03T19:02:17.579Z,69.90
2017-10-03T19:04:46.850Z,70.20
2017-10-03T19:07:16.339Z,70.60
2017-10-03T19:09:46.554Z,70.80
2017-10-03T19:12:16.665Z,71.50
2017-10-03T19:14:46.965Z,71.50
2017-10-03T19:17:16.610Z,71.60
2017-10-03T19:19:46.129Z,71.90
2017-10-03T19:22:43.101Z,72.50
2017-10-03T19:25:13.307Z,72.50
2017-10-03T19:27:43.591Z,72.30
2017-10-03T19:30:14.130Z,72.40
2017-10-03T19:32:46.633Z,72.80
2017-10-03T19:35:17.591Z,72.80
2017-10-03T19:37:47.083Z,72.80
2017-10-03T19:40:16.510Z,73.10
2017-10-03T19:42:46.859Z,73.40
2017-10-03T19:45:16.373Z,73.40
2017-10-03T19:47:46.783Z,73.80
2017-10-03T19:50:16.091Z,73.80
2017-10-03T19:52:46.456Z,74.40
2017-10-03T19:55:15.546Z,74.40
2017-10-03T19:57:45.435Z,74.30
2017-10-03T20:00:14.816Z,74.80
2017-10-03T20:02:44.429Z,75.00
2017-10-03T20:05:13.585Z,75.20
2017-10-03T20:07:42.887Z,75.50
2017-10-03T20:10:12.026Z,75.60
2017-10-03T20:12:42.683Z,75.90
2017-10-03T20:15:14.039Z,76.40
2017-10-03T20:17:43.631Z,76.20
2017-10-03T20:20:19.594Z,76.40
2017-10-03T20:22:49.824Z,76.90
2017-10-03T20:25:21.094Z,76.90
2017-10-03T20:27:52.265Z,77.30
2017-10-03T20:30:24.218Z,77.80
2017-10-03T20:33:01.289Z,77.30
2017-10-03T20:35:32.920Z,77.60
2017-10-03T20:38:02.784Z,77.70
2017-10-03T20:40:32.213Z,77.80
2017-10-03T20:43:01.785Z,77.50
2017-10-03T20:45:33.389Z,77.50
2017-10-03T20:48:03.483Z,77.50
2017-10-03T20:50:33.021Z,78.40
2017-10-03T20:53:03.680Z,78.10
2017-10-03T20:55:33.431Z,78.00
2017-10-03T20:58:02.806Z,77.80
2017-10-03T21:00:32.280Z,77.80
2017-10-03T21:03:02.137Z,78.60
2017-10-03T21:05:33.222Z,77.60
2017-10-03T21:08:02.610Z,77.40
2017-10-03T21:10:31.873Z,77.40
2017-10-03T21:13:01.609Z,76.90
2017-10-03T21:15:31.973Z,76.70
2017-10-03T21:18:01.676Z,76.90
2017-10-03T21:20:31.543Z,77.10
2017-10-03T21:23:00.956Z,76.90
2017-10-03T21:25:31.821Z,76.80
2017-10-03T21:28:01.676Z,76.60
2017-10-03T21:30:47.464Z,76.90
2017-10-03T21:33:20.821Z,77.20
2017-10-03T21:35:51.376Z,76.80
2017-10-03T21:38:21.053Z,76.90
2017-10-03T21:40:52.033Z,76.90
2017-10-03T21:43:27.262Z,77.30
2017-10-03T21:46:04.047Z,77.80
2017-10-03T21:48:51.439Z,77.60
2017-10-03T21:51:35.189Z,77.30
2017-10-03T21:54:08.890Z,77.40
2017-10-03T21:56:48.112Z,77.40
2017-10-03T21:59:21.994Z,77.40
2017-10-03T22:01:52.570Z,77.80
2017-10-03T22:04:22.068Z,77.80
2017-10-03T22:06:51.303Z,77.80
2017-10-03T22:09:20.530Z,77.80
2017-10-03T22:11:49.944Z,77.90
2017-10-03T22:14:20.874Z,77.90
2017-10-03T22:16:50.499Z,77.80
2017-10-03T22:19:21.441Z,78.00
2017-10-03T22:21:51.388Z,78.40
2017-10-03T22:24:20.659Z,78.30
2017-10-03T22:26:50.793Z,78.70
2017-10-03T22:29:20.250Z,78.60
2017-10-03T22:31:52.348Z,78.60
2017-10-03T22:34:21.937Z,78.60
2017-10-03T22:36:51.276Z,78.70
2017-10-03T22:39:21.410Z,78.70
2017-10-03T22:41:52.366Z,78.80
2017-10-03T22:44:29.663Z,78.90
2017-10-03T22:46:59.057Z,78.90
2017-10-03T22:49:28.367Z,78.60
2017-10-03T22:52:01.680Z,78.70
2017-10-03T22:54:31.660Z,78.50
2017-10-03T22:57:00.908Z,78.50
2017-10-03T22:59:30.180Z,78.70
2017-10-03T23:01:59.844Z,78.70
2017-10-03T23:04:30.127Z,78.50
2017-10-03T23:07:00.933Z,78.40
2017-10-03T23:09:31.673Z,79.20
2017-10-03T23:12:01.498Z,79.20
2017-10-03T23:14:31.617Z,79.30
2017-10-03T23:17:01.089Z,79.30
2017-10-03T23:19:31.536Z,80.30
2017-10-03T23:22:00.843Z,79.60
2017-10-03T23:24:30.461Z,79.70
2017-10-03T23:26:59.584Z,79.50
2017-10-03T23:29:28.912Z,79.50
2017-10-03T23:31:58.298Z,79.40
2017-10-03T23:34:27.802Z,79.50
2017-10-03T23:36:58.652Z,79.50
2017-10-03T23:39:32.818Z,79.70
2017-10-03T23:42:04.184Z,79.60
2017-10-03T23:44:33.396Z,79.90
2017-10-03T23:47:04.199Z,79.90
2017-10-03T23:49:34.420Z,80.10
2017-10-03T23:52:04.969Z,80.10
2017-10-03T23:54:35.664Z,80.20
2017-10-03T23:57:11.250Z,80.40
2017-10-03T23:59:40.825Z,80.40
